Terminal Aerodrome Forecast
Issued by NWS

Home | Current Version | Previous Version | Text Only | Print | Product List | Glossary On
Versions: 1 2 3 4 5 6 7 8 9 10 11 12 13 14 15 16 17 18 19 20
000
FTUS44 KMAF 281120
TAFFST
TAF
KFST 281120Z 2812/2912 17008KT P6SM SKC
     FM281600 14013G23KT P6SM SCT080 SCT250
     FM290200 15014KT P6SM BKN200
     FM291000 15014KT P6SM OVC004=

USA.gov is the U.S. government's official web portal to all federal, state and local government web resources and services.